sensor_id;sensor_type;location;lat;lon;timestamp;temperature;humidity
51613;DHT22;37694;51.748;14.326;2023-07-22T00:01:25;23.10;50.60
51613;DHT22;37694;51.748;14.326;2023-07-22T00:03:50;23.10;50.40
51613;DHT22;37694;51.748;14.326;2023-07-22T00:06:16;23.20;50.20
51613;DHT22;37694;51.748;14.326;2023-07-22T00:08:42;23.20;50.20
51613;DHT22;37694;51.748;14.326;2023-07-22T00:11:07;23.30;50.30
51613;DHT22;37694;51.748;14.326;2023-07-22T00:13:34;23.30;50.20
51613;DHT22;37694;51.748;14.326;2023-07-22T00:16:00;23.40;50.20
51613;DHT22;37694;51.748;14.326;2023-07-22T00:18:29;23.40;50.00
51613;DHT22;37694;51.748;14.326;2023-07-22T00:20:55;23.40;49.80
51613;DHT22;37694;51.748;14.326;2023-07-22T00:23:20;23.50;49.90
51613;DHT22;37694;51.748;14.326;2023-07-22T00:25:47;23.50;49.90
51613;DHT22;37694;51.748;14.326;2023-07-22T00:28:13;23.50;49.90
51613;DHT22;37694;51.748;14.326;2023-07-22T00:30:39;23.60;50.80
51613;DHT22;37694;51.748;14.326;2023-07-22T00:33:04;23.60;50.00
51613;DHT22;37694;51.748;14.326;2023-07-22T00:35:31;23.60;49.90
51613;DHT22;37694;51.748;14.326;2023-07-22T00:37:57;23.60;49.80
51613;DHT22;37694;51.748;14.326;2023-07-22T00:40:23;23.70;49.70
51613;DHT22;37694;51.748;14.326;2023-07-22T00:42:49;23.70;49.70
51613;DHT22;37694;51.748;14.326;2023-07-22T00:45:15;23.70;49.60
51613;DHT22;37694;51.748;14.326;2023-07-22T00:47:41;23.80;49.60
51613;DHT22;37694;51.748;14.326;2023-07-22T00:50:07;23.80;49.60
51613;DHT22;37694;51.748;14.326;2023-07-22T00:52:34;23.80;49.60
51613;DHT22;37694;51.748;14.326;2023-07-22T00:54:59;23.80;49.50
51613;DHT22;37694;51.748;14.326;2023-07-22T00:57:25;23.90;49.40
51613;DHT22;37694;51.748;14.326;2023-07-22T00:59:51;23.90;49.40
51613;DHT22;37694;51.748;14.326;2023-07-22T01:02:18;23.90;49.40
51613;DHT22;37694;51.748;14.326;2023-07-22T01:04:44;23.90;49.30
51613;DHT22;37694;51.748;14.326;2023-07-22T01:07:10;23.90;49.50
51613;DHT22;37694;51.748;14.326;2023-07-22T01:09:37;23.90;50.40
51613;DHT22;37694;51.748;14.326;2023-07-22T01:12:03;23.90;49.50
51613;DHT22;37694;51.748;14.326;2023-07-22T01:14:34;24.00;49.30
51613;DHT22;37694;51.748;14.326;2023-07-22T01:17:05;24.00;49.30
51613;DHT22;37694;51.748;14.326;2023-07-22T01:19:33;24.00;49.30
51613;DHT22;37694;51.748;14.326;2023-07-22T01:22:04;24.00;49.30
51613;DHT22;37694;51.748;14.326;2023-07-22T01:24:31;24.00;49.20
51613;DHT22;37694;51.748;14.326;2023-07-22T01:26:57;24.10;49.30
51613;DHT22;37694;51.748;14.326;2023-07-22T01:29:24;24.10;49.20
51613;DHT22;37694;51.748;14.326;2023-07-22T01:31:54;24.10;49.30
51613;DHT22;37694;51.748;14.326;2023-07-22T01:34:21;24.10;49.30
51613;DHT22;37694;51.748;14.326;2023-07-22T01:36:48;24.10;49.20
51613;DHT22;37694;51.748;14.326;2023-07-22T01:39:14;24.10;49.20
51613;DHT22;37694;51.748;14.326;2023-07-22T01:41:40;24.10;49.30
51613;DHT22;37694;51.748;14.326;2023-07-22T01:44:06;24.10;49.20
51613;DHT22;37694;51.748;14.326;2023-07-22T01:46:33;24.10;49.30
51613;DHT22;37694;51.748;14.326;2023-07-22T01:48:58;24.10;49.20
51613;DHT22;37694;51.748;14.326;2023-07-22T01:51:24;24.20;49.30
51613;DHT22;37694;51.748;14.326;2023-07-22T01:53:51;24.20;49.20
51613;DHT22;37694;51.748;14.326;2023-07-22T01:56:16;24.20;49.30
51613;DHT22;37694;51.748;14.326;2023-07-22T01:58:42;24.20;49.30
51613;DHT22;37694;51.748;14.326;2023-07-22T02:01:08;24.20;49.30
51613;DHT22;37694;51.748;14.326;2023-07-22T02:03:34;24.20;49.20
51613;DHT22;37694;51.748;14.326;2023-07-22T02:06:03;24.20;49.10
51613;DHT22;37694;51.748;14.326;2023-07-22T02:08:29;24.20;48.90
51613;DHT22;37694;51.748;14.326;2023-07-22T02:10:59;24.30;49.10
51613;DHT22;37694;51.748;14.326;2023-07-22T02:13:25;24.20;49.00
51613;DHT22;37694;51.748;14.326;2023-07-22T02:15:51;24.30;49.10
51613;DHT22;37694;51.748;14.326;2023-07-22T02:18:17;24.30;49.10
51613;DHT22;37694;51.748;14.326;2023-07-22T02:20:43;24.30;50.00
51613;DHT22;37694;51.748;14.326;2023-07-22T02:23:08;24.30;49.10
51613;DHT22;37694;51.748;14.326;2023-07-22T02:25:35;24.30;49.10
51613;DHT22;37694;51.748;14.326;2023-07-22T02:28:01;24.30;49.10
51613;DHT22;37694;51.748;14.326;2023-07-22T02:30:27;24.30;49.10
51613;DHT22;37694;51.748;14.326;2023-07-22T02:32:52;24.30;49.00
51613;DHT22;37694;51.748;14.326;2023-07-22T02:35:18;24.30;49.10
51613;DHT22;37694;51.748;14.326;2023-07-22T02:37:44;24.30;49.00
51613;DHT22;37694;51.748;14.326;2023-07-22T02:40:09;24.30;49.00
51613;DHT22;37694;51.748;14.326;2023-07-22T02:42:39;24.30;49.00
51613;DHT22;37694;51.748;14.326;2023-07-22T02:45:05;24.30;48.90
51613;DHT22;37694;51.748;14.326;2023-07-22T02:47:33;24.30;49.00
51613;DHT22;37694;51.748;14.326;2023-07-22T02:50:00;24.30;48.90
51613;DHT22;37694;51.748;14.326;2023-07-22T02:52:25;24.30;49.00
51613;DHT22;37694;51.748;14.326;2023-07-22T02:57:31;24.40;48.90
51613;DHT22;37694;51.748;14.326;2023-07-22T02:59:56;24.40;49.00
51613;DHT22;37694;51.748;14.326;2023-07-22T03:02:22;24.30;48.80
51613;DHT22;37694;51.748;14.326;2023-07-22T03:04:48;24.40;49.00
51613;DHT22;37694;51.748;14.326;2023-07-22T03:07:13;24.40;48.90
51613;DHT22;37694;51.748;14.326;2023-07-22T03:09:40;24.40;48.90
51613;DHT22;37694;51.748;14.326;2023-07-22T03:12:06;24.40;48.90
51613;DHT22;37694;51.748;14.326;2023-07-22T03:14:31;24.40;48.80
51613;DHT22;37694;51.748;14.326;2023-07-22T03:17:02;24.40;48.90
51613;DHT22;37694;51.748;14.326;2023-07-22T03:19:29;24.40;48.90
51613;DHT22;37694;51.748;14.326;2023-07-22T03:21:55;24.40;49.00
51613;DHT22;37694;51.748;14.326;2023-07-22T03:24:21;24.40;49.00
51613;DHT22;37694;51.748;14.326;2023-07-22T03:26:46;24.40;49.00
51613;DHT22;37694;51.748;14.326;2023-07-22T03:29:12;24.40;49.00
51613;DHT22;37694;51.748;14.326;2023-07-22T03:31:38;24.40;49.00
51613;DHT22;37694;51.748;14.326;2023-07-22T03:34:04;24.40;49.00
51613;DHT22;37694;51.748;14.326;2023-07-22T03:36:30;24.40;49.10
51613;DHT22;37694;51.748;14.326;2023-07-22T03:38:59;24.50;49.10
51613;DHT22;37694;51.748;14.326;2023-07-22T03:41:25;24.40;48.90
51613;DHT22;37694;51.748;14.326;2023-07-22T03:43:51;24.50;49.00
51613;DHT22;37694;51.748;14.326;2023-07-22T03:46:16;24.40;49.00
51613;DHT22;37694;51.748;14.326;2023-07-22T03:48:42;24.50;49.00
51613;DHT22;37694;51.748;14.326;2023-07-22T03:51:08;24.50;49.10
51613;DHT22;37694;51.748;14.326;2023-07-22T03:53:33;24.50;49.00
51613;DHT22;37694;51.748;14.326;2023-07-22T03:55:59;24.50;49.30
51613;DHT22;37694;51.748;14.326;2023-07-22T03:58:24;24.50;49.20
51613;DHT22;37694;51.748;14.326;2023-07-22T04:00:50;24.50;49.10
51613;DHT22;37694;51.748;14.326;2023-07-22T04:03:16;24.50;49.30
51613;DHT22;37694;51.748;14.326;2023-07-22T04:05:41;24.50;49.30
51613;DHT22;37694;51.748;14.326;2023-07-22T04:08:07;24.50;49.20
51613;DHT22;37694;51.748;14.326;2023-07-22T04:10:33;24.50;49.30
51613;DHT22;37694;51.748;14.326;2023-07-22T04:12:58;24.50;49.40
51613;DHT22;37694;51.748;14.326;2023-07-22T04:15:24;24.60;49.50
51613;DHT22;37694;51.748;14.326;2023-07-22T04:17:50;24.60;49.50
51613;DHT22;37694;51.748;14.326;2023-07-22T04:20:16;24.60;49.50
51613;DHT22;37694;51.748;14.326;2023-07-22T04:22:43;24.60;49.40
51613;DHT22;37694;51.748;14.326;2023-07-22T04:25:09;24.60;49.40
51613;DHT22;37694;51.748;14.326;2023-07-22T04:27:34;24.60;49.40
51613;DHT22;37694;51.748;14.326;2023-07-22T04:30:00;24.60;49.30
51613;DHT22;37694;51.748;14.326;2023-07-22T04:32:26;24.60;49.30
51613;DHT22;37694;51.748;14.326;2023-07-22T04:34:51;24.60;49.30
51613;DHT22;37694;51.748;14.326;2023-07-22T04:37:17;24.60;49.30
51613;DHT22;37694;51.748;14.326;2023-07-22T04:39:49;24.70;49.40
51613;DHT22;37694;51.748;14.326;2023-07-22T04:42:15;24.70;49.40
51613;DHT22;37694;51.748;14.326;2023-07-22T04:44:40;24.70;49.30
51613;DHT22;37694;51.748;14.326;2023-07-22T04:47:06;24.70;49.30
51613;DHT22;37694;51.748;14.326;2023-07-22T04:49:32;24.70;50.10
51613;DHT22;37694;51.748;14.326;2023-07-22T04:51:57;24.70;49.30
51613;DHT22;37694;51.748;14.326;2023-07-22T04:54:23;24.70;49.30
51613;DHT22;37694;51.748;14.326;2023-07-22T04:56:49;24.70;49.20
51613;DHT22;37694;51.748;14.326;2023-07-22T04:59:14;24.70;49.20
51613;DHT22;37694;51.748;14.326;2023-07-22T05:01:41;24.70;49.20
51613;DHT22;37694;51.748;14.326;2023-07-22T05:04:07;24.70;49.10
51613;DHT22;37694;51.748;14.326;2023-07-22T05:06:32;24.70;49.00
51613;DHT22;37694;51.748;14.326;2023-07-22T05:08:58;24.70;49.00
51613;DHT22;37694;51.748;14.326;2023-07-22T05:11:24;24.70;49.00
51613;DHT22;37694;51.748;14.326;2023-07-22T05:13:50;24.70;49.10
51613;DHT22;37694;51.748;14.326;2023-07-22T05:16:15;24.80;49.30
51613;DHT22;37694;51.748;14.326;2023-07-22T05:18:41;24.70;49.20
51613;DHT22;37694;51.748;14.326;2023-07-22T05:21:07;24.80;49.40
51613;DHT22;37694;51.748;14.326;2023-07-22T05:23:33;24.80;49.30
51613;DHT22;37694;51.748;14.326;2023-07-22T05:25:59;24.80;49.30
51613;DHT22;37694;51.748;14.326;2023-07-22T05:28:24;24.80;49.30
51613;DHT22;37694;51.748;14.326;2023-07-22T05:30:50;24.80;49.40
51613;DHT22;37694;51.748;14.326;2023-07-22T05:33:16;24.80;49.30
51613;DHT22;37694;51.748;14.326;2023-07-22T05:35:41;24.80;49.40
51613;DHT22;37694;51.748;14.326;2023-07-22T05:38:07;24.80;49.20
51613;DHT22;37694;51.748;14.326;2023-07-22T05:40:33;24.80;49.20
51613;DHT22;37694;51.748;14.326;2023-07-22T05:42:58;24.80;49.00
51613;DHT22;37694;51.748;14.326;2023-07-22T05:45:24;24.80;49.90
51613;DHT22;37694;51.748;14.326;2023-07-22T05:47:50;24.90;49.30
51613;DHT22;37694;51.748;14.326;2023-07-22T05:50:15;24.90;49.20
51613;DHT22;37694;51.748;14.326;2023-07-22T05:52:41;24.90;49.20
51613;DHT22;37694;51.748;14.326;2023-07-22T05:55:07;24.90;49.20
51613;DHT22;37694;51.748;14.326;2023-07-22T05:57:34;24.90;49.20
51613;DHT22;37694;51.748;14.326;2023-07-22T06:00:00;24.90;49.10
51613;DHT22;37694;51.748;14.326;2023-07-22T06:02:26;24.90;49.10
51613;DHT22;37694;51.748;14.326;2023-07-22T06:04:51;24.90;49.20
51613;DHT22;37694;51.748;14.326;2023-07-22T06:07:17;24.90;49.20
51613;DHT22;37694;51.748;14.326;2023-07-22T06:09:43;24.90;49.30
51613;DHT22;37694;51.748;14.326;2023-07-22T06:12:09;24.90;50.00
51613;DHT22;37694;51.748;14.326;2023-07-22T06:14:35;24.90;49.20
51613;DHT22;37694;51.748;14.326;2023-07-22T06:17:00;25.00;49.20
51613;DHT22;37694;51.748;14.326;2023-07-22T06:19:26;24.90;49.20
51613;DHT22;37694;51.748;14.326;2023-07-22T06:21:52;25.00;49.30
51613;DHT22;37694;51.748;14.326;2023-07-22T06:24:17;25.00;49.40
51613;DHT22;37694;51.748;14.326;2023-07-22T06:26:43;25.00;49.50
51613;DHT22;37694;51.748;14.326;2023-07-22T06:29:09;25.00;49.40
51613;DHT22;37694;51.748;14.326;2023-07-22T06:31:34;25.10;49.50
51613;DHT22;37694;51.748;14.326;2023-07-22T06:34:00;25.00;49.40
51613;DHT22;37694;51.748;14.326;2023-07-22T06:36:26;25.00;49.50
51613;DHT22;37694;51.748;14.326;2023-07-22T06:38:52;25.10;49.60
51613;DHT22;37694;51.748;14.326;2023-07-22T06:41:18;25.10;49.60
51613;DHT22;37694;51.748;14.326;2023-07-22T06:43:44;25.10;49.50
51613;DHT22;37694;51.748;14.326;2023-07-22T06:46:10;25.10;49.60
51613;DHT22;37694;51.748;14.326;2023-07-22T06:48:36;25.10;49.70
51613;DHT22;37694;51.748;14.326;2023-07-22T06:51:01;25.10;49.50
51613;DHT22;37694;51.748;14.326;2023-07-22T06:53:27;25.10;49.70
51613;DHT22;37694;51.748;14.326;2023-07-22T06:55:53;25.10;50.00
51613;DHT22;37694;51.748;14.326;2023-07-22T06:58:22;25.20;50.70
51613;DHT22;37694;51.748;14.326;2023-07-22T07:00:52;25.20;50.90
51613;DHT22;37694;51.748;14.326;2023-07-22T07:03:17;25.20;50.00
51613;DHT22;37694;51.748;14.326;2023-07-22T07:05:43;25.00;48.60
51613;DHT22;37694;51.748;14.326;2023-07-22T07:08:09;24.90;48.50
51613;DHT22;37694;51.748;14.326;2023-07-22T07:10:38;24.90;47.70
51613;DHT22;37694;51.748;14.326;2023-07-22T07:13:05;24.90;47.50
51613;DHT22;37694;51.748;14.326;2023-07-22T07:15:30;24.80;47.30
51613;DHT22;37694;51.748;14.326;2023-07-22T07:17:56;24.80;47.30
51613;DHT22;37694;51.748;14.326;2023-07-22T07:20:22;24.70;46.90
51613;DHT22;37694;51.748;14.326;2023-07-22T07:22:47;24.70;46.80
51613;DHT22;37694;51.748;14.326;2023-07-22T07:25:13;24.70;46.40
51613;DHT22;37694;51.748;14.326;2023-07-22T07:27:40;24.70;46.60
51613;DHT22;37694;51.748;14.326;2023-07-22T07:30:07;24.70;46.60
51613;DHT22;37694;51.748;14.326;2023-07-22T07:32:34;24.70;46.60
51613;DHT22;37694;51.748;14.326;2023-07-22T07:35:00;24.70;46.80
51613;DHT22;37694;51.748;14.326;2023-07-22T07:37:25;24.80;46.40
51613;DHT22;37694;51.748;14.326;2023-07-22T07:39:51;24.80;46.80
51613;DHT22;37694;51.748;14.326;2023-07-22T07:42:17;24.80;46.70
51613;DHT22;37694;51.748;14.326;2023-07-22T07:44:43;24.80;46.50
51613;DHT22;37694;51.748;14.326;2023-07-22T07:47:08;24.80;46.30
51613;DHT22;37694;51.748;14.326;2023-07-22T07:49:34;24.80;46.20
51613;DHT22;37694;51.748;14.326;2023-07-22T07:52:00;24.80;46.10
51613;DHT22;37694;51.748;14.326;2023-07-22T07:54:25;24.90;46.40
51613;DHT22;37694;51.748;14.326;2023-07-22T07:56:51;24.90;46.00
51613;DHT22;37694;51.748;14.326;2023-07-22T07:59:17;24.90;46.20
51613;DHT22;37694;51.748;14.326;2023-07-22T08:01:42;24.90;46.30
51613;DHT22;37694;51.748;14.326;2023-07-22T08:04:08;24.90;46.10
51613;DHT22;37694;51.748;14.326;2023-07-22T08:06:34;25.00;45.90
51613;DHT22;37694;51.748;14.326;2023-07-22T08:09:00;25.00;45.40
51613;DHT22;37694;51.748;14.326;2023-07-22T08:11:26;25.00;45.10
51613;DHT22;37694;51.748;14.326;2023-07-22T08:13:51;25.00;45.60
51613;DHT22;37694;51.748;14.326;2023-07-22T08:16:17;25.00;45.00
51613;DHT22;37694;51.748;14.326;2023-07-22T08:18:43;24.90;44.60
51613;DHT22;37694;51.748;14.326;2023-07-22T08:21:09;24.90;44.60
51613;DHT22;37694;51.748;14.326;2023-07-22T08:23:36;24.90;44.30
51613;DHT22;37694;51.748;14.326;2023-07-22T08:26:02;24.90;43.90
51613;DHT22;37694;51.748;14.326;2023-07-22T08:28:31;24.90;44.00
51613;DHT22;37694;51.748;14.326;2023-07-22T08:30:57;24.90;43.80
51613;DHT22;37694;51.748;14.326;2023-07-22T08:33:24;24.90;43.20
51613;DHT22;37694;51.748;14.326;2023-07-22T08:35:51;24.90;43.40
51613;DHT22;37694;51.748;14.326;2023-07-22T08:38:17;24.90;43.80
51613;DHT22;37694;51.748;14.326;2023-07-22T08:40:43;24.90;43.30
51613;DHT22;37694;51.748;14.326;2023-07-22T08:43:10;24.90;43.30
51613;DHT22;37694;51.748;14.326;2023-07-22T08:45:38;24.90;43.00
51613;DHT22;37694;51.748;14.326;2023-07-22T08:48:08;25.00;43.50
51613;DHT22;37694;51.748;14.326;2023-07-22T08:50:55;24.90;42.60
51613;DHT22;37694;51.748;14.326;2023-07-22T08:53:21;24.90;42.70
51613;DHT22;37694;51.748;14.326;2023-07-22T08:55:49;24.90;43.10
51613;DHT22;37694;51.748;14.326;2023-07-22T08:58:16;24.90;42.60
51613;DHT22;37694;51.748;14.326;2023-07-22T09:00:42;24.90;42.70
51613;DHT22;37694;51.748;14.326;2023-07-22T09:03:09;25.00;42.50
51613;DHT22;37694;51.748;14.326;2023-07-22T09:05:36;25.00;42.30
51613;DHT22;37694;51.748;14.326;2023-07-22T09:08:04;25.00;42.30
51613;DHT22;37694;51.748;14.326;2023-07-22T09:10:30;25.00;42.30
51613;DHT22;37694;51.748;14.326;2023-07-22T09:12:57;25.00;42.30
51613;DHT22;37694;51.748;14.326;2023-07-22T09:15:24;25.10;42.00
51613;DHT22;37694;51.748;14.326;2023-07-22T09:17:51;25.10;41.80
51613;DHT22;37694;51.748;14.326;2023-07-22T09:20:16;25.10;41.70
51613;DHT22;37694;51.748;14.326;2023-07-22T09:22:47;25.10;41.50
51613;DHT22;37694;51.748;14.326;2023-07-22T09:25:20;25.10;41.60
51613;DHT22;37694;51.748;14.326;2023-07-22T09:27:47;25.20;41.60
51613;DHT22;37694;51.748;14.326;2023-07-22T09:30:26;25.20;41.80
51613;DHT22;37694;51.748;14.326;2023-07-22T09:32:54;25.20;41.80
51613;DHT22;37694;51.748;14.326;2023-07-22T09:35:20;25.20;41.40
51613;DHT22;37694;51.748;14.326;2023-07-22T09:37:46;25.20;41.20
51613;DHT22;37694;51.748;14.326;2023-07-22T09:40:23;25.20;41.20
51613;DHT22;37694;51.748;14.326;2023-07-22T09:42:50;25.20;41.20
51613;DHT22;37694;51.748;14.326;2023-07-22T09:45:17;25.20;41.40
51613;DHT22;37694;51.748;14.326;2023-07-22T09:47:45;25.30;41.20
51613;DHT22;37694;51.748;14.326;2023-07-22T09:50:16;25.30;41.00
51613;DHT22;37694;51.748;14.326;2023-07-22T09:52:53;25.30;41.10
51613;DHT22;37694;51.748;14.326;2023-07-22T09:55:22;25.30;41.40
51613;DHT22;37694;51.748;14.326;2023-07-22T09:57:51;25.30;40.90
51613;DHT22;37694;51.748;14.326;2023-07-22T10:00:17;25.30;40.90
51613;DHT22;37694;51.748;14.326;2023-07-22T10:02:48;25.40;41.00
51613;DHT22;37694;51.748;14.326;2023-07-22T10:05:19;25.40;40.70
51613;DHT22;37694;51.748;14.326;2023-07-22T10:07:47;25.40;40.60
51613;DHT22;37694;51.748;14.326;2023-07-22T10:10:18;25.40;41.00
51613;DHT22;37694;51.748;14.326;2023-07-22T10:12:45;25.40;40.40
51613;DHT22;37694;51.748;14.326;2023-07-22T10:15:15;25.40;40.60
51613;DHT22;37694;51.748;14.326;2023-07-22T10:17:42;25.40;40.40
51613;DHT22;37694;51.748;14.326;2023-07-22T10:20:09;25.50;40.80
51613;DHT22;37694;51.748;14.326;2023-07-22T10:22:46;25.50;40.80
51613;DHT22;37694;51.748;14.326;2023-07-22T10:25:19;25.50;40.30
51613;DHT22;37694;51.748;14.326;2023-07-22T10:27:46;25.60;40.60
51613;DHT22;37694;51.748;14.326;2023-07-22T10:30:13;25.50;40.70
51613;DHT22;37694;51.748;14.326;2023-07-22T10:32:47;25.50;40.50
51613;DHT22;37694;51.748;14.326;2023-07-22T10:37:55;25.60;40.00
51613;DHT22;37694;51.748;14.326;2023-07-22T10:40:28;25.70;39.80
51613;DHT22;37694;51.748;14.326;2023-07-22T10:43:03;25.70;39.40
51613;DHT22;37694;51.748;14.326;2023-07-22T10:45:31;25.80;39.20
51613;DHT22;37694;51.748;14.326;2023-07-22T10:50:50;25.80;39.50
51613;DHT22;37694;51.748;14.326;2023-07-22T10:56:11;25.80;39.20
51613;DHT22;37694;51.748;14.326;2023-07-22T11:01:22;25.80;39.00
51613;DHT22;37694;51.748;14.326;2023-07-22T11:14:49;25.70;38.90
51613;DHT22;37694;51.748;14.326;2023-07-22T11:17:15;25.80;38.40
51613;DHT22;37694;51.748;14.326;2023-07-22T11:19:43;25.80;39.10
51613;DHT22;37694;51.748;14.326;2023-07-22T11:22:09;25.70;38.30
51613;DHT22;37694;51.748;14.326;2023-07-22T11:24:36;25.70;38.40
51613;DHT22;37694;51.748;14.326;2023-07-22T11:27:07;25.80;38.90
51613;DHT22;37694;51.748;14.326;2023-07-22T11:29:34;25.80;38.90
51613;DHT22;37694;51.748;14.326;2023-07-22T11:32:01;25.80;39.00
51613;DHT22;37694;51.748;14.326;2023-07-22T11:34:27;25.70;39.70
51613;DHT22;37694;51.748;14.326;2023-07-22T11:36:54;25.70;38.70
51613;DHT22;37694;51.748;14.326;2023-07-22T11:39:22;25.70;38.90
51613;DHT22;37694;51.748;14.326;2023-07-22T11:41:48;25.70;38.90
51613;DHT22;37694;51.748;14.326;2023-07-22T11:44:17;25.70;38.90
51613;DHT22;37694;51.748;14.326;2023-07-22T11:47:03;25.80;38.90
51613;DHT22;37694;51.748;14.326;2023-07-22T11:49:36;25.80;39.30
51613;DHT22;37694;51.748;14.326;2023-07-22T11:52:09;25.80;38.60
51613;DHT22;37694;51.748;14.326;2023-07-22T11:54:40;25.80;38.70
51613;DHT22;37694;51.748;14.326;2023-07-22T11:57:24;25.70;38.40
51613;DHT22;37694;51.748;14.326;2023-07-22T11:59:56;25.80;38.30
51613;DHT22;37694;51.748;14.326;2023-07-22T12:02:28;25.70;38.10
51613;DHT22;37694;51.748;14.326;2023-07-22T12:05:03;25.80;38.30
51613;DHT22;37694;51.748;14.326;2023-07-22T12:07:34;25.80;38.90
51613;DHT22;37694;51.748;14.326;2023-07-22T12:10:02;25.80;38.60
51613;DHT22;37694;51.748;14.326;2023-07-22T12:12:40;25.80;38.80
51613;DHT22;37694;51.748;14.326;2023-07-22T12:15:12;25.90;38.70
51613;DHT22;37694;51.748;14.326;2023-07-22T12:17:51;25.80;38.70
51613;DHT22;37694;51.748;14.326;2023-07-22T12:20:18;25.80;38.70
51613;DHT22;37694;51.748;14.326;2023-07-22T12:22:44;25.80;38.60
51613;DHT22;37694;51.748;14.326;2023-07-22T12:25:10;25.80;38.50
51613;DHT22;37694;51.748;14.326;2023-07-22T12:27:37;25.90;39.10
51613;DHT22;37694;51.748;14.326;2023-07-22T12:30:04;25.90;38.90
51613;DHT22;37694;51.748;14.326;2023-07-22T12:32:31;25.80;39.00
51613;DHT22;37694;51.748;14.326;2023-07-22T12:34:56;25.90;38.50
51613;DHT22;37694;51.748;14.326;2023-07-22T12:37:22;25.90;38.40
51613;DHT22;37694;51.748;14.326;2023-07-22T12:39:48;25.90;38.50
51613;DHT22;37694;51.748;14.326;2023-07-22T12:42:13;25.90;38.70
51613;DHT22;37694;51.748;14.326;2023-07-22T12:44:39;25.90;38.50
51613;DHT22;37694;51.748;14.326;2023-07-22T12:47:05;25.90;38.30
51613;DHT22;37694;51.748;14.326;2023-07-22T12:49:30;25.90;37.90
51613;DHT22;37694;51.748;14.326;2023-07-22T12:51:56;25.90;38.10
51613;DHT22;37694;51.748;14.326;2023-07-22T12:54:29;25.90;38.30
51613;DHT22;37694;51.748;14.326;2023-07-22T12:56:54;25.90;38.20
51613;DHT22;37694;51.748;14.326;2023-07-22T12:59:20;25.90;37.90
51613;DHT22;37694;51.748;14.326;2023-07-22T13:01:46;25.90;38.70
51613;DHT22;37694;51.748;14.326;2023-07-22T13:04:11;26.00;38.30
51613;DHT22;37694;51.748;14.326;2023-07-22T13:06:37;26.00;38.30
51613;DHT22;37694;51.748;14.326;2023-07-22T13:09:03;26.00;38.10
51613;DHT22;37694;51.748;14.326;2023-07-22T13:11:29;26.00;38.50
51613;DHT22;37694;51.748;14.326;2023-07-22T13:13:55;26.00;38.50
51613;DHT22;37694;51.748;14.326;2023-07-22T13:16:20;26.00;38.80
51613;DHT22;37694;51.748;14.326;2023-07-22T13:18:46;26.00;38.50
51613;DHT22;37694;51.748;14.326;2023-07-22T13:21:11;26.00;38.70
51613;DHT22;37694;51.748;14.326;2023-07-22T13:23:37;26.00;38.70
51613;DHT22;37694;51.748;14.326;2023-07-22T13:26:03;26.00;38.50
51613;DHT22;37694;51.748;14.326;2023-07-22T13:28:28;26.00;38.40
51613;DHT22;37694;51.748;14.326;2023-07-22T13:30:54;26.00;38.10
51613;DHT22;37694;51.748;14.326;2023-07-22T13:33:19;25.90;37.60
51613;DHT22;37694;51.748;14.326;2023-07-22T13:35:46;25.90;37.60
51613;DHT22;37694;51.748;14.326;2023-07-22T13:38:11;25.80;37.40
51613;DHT22;37694;51.748;14.326;2023-07-22T13:40:37;25.80;37.50
51613;DHT22;37694;51.748;14.326;2023-07-22T13:43:02;25.70;37.60
51613;DHT22;37694;51.748;14.326;2023-07-22T13:45:28;25.70;38.00
51613;DHT22;37694;51.748;14.326;2023-07-22T13:47:54;25.70;38.40
51613;DHT22;37694;51.748;14.326;2023-07-22T13:50:20;25.70;38.40
51613;DHT22;37694;51.748;14.326;2023-07-22T13:52:45;25.60;38.60
51613;DHT22;37694;51.748;14.326;2023-07-22T13:55:11;25.60;38.80
51613;DHT22;37694;51.748;14.326;2023-07-22T13:57:37;25.60;38.80
51613;DHT22;37694;51.748;14.326;2023-07-22T14:00:03;25.60;38.70
51613;DHT22;37694;51.748;14.326;2023-07-22T14:02:36;25.60;38.70
51613;DHT22;37694;51.748;14.326;2023-07-22T14:05:02;25.50;38.60
51613;DHT22;37694;51.748;14.326;2023-07-22T14:07:28;25.60;39.30
51613;DHT22;37694;51.748;14.326;2023-07-22T14:09:54;25.60;38.90
51613;DHT22;37694;51.748;14.326;2023-07-22T14:12:20;25.50;38.90
51613;DHT22;37694;51.748;14.326;2023-07-22T14:14:45;25.50;39.90
51613;DHT22;37694;51.748;14.326;2023-07-22T14:17:11;25.60;39.00
51613;DHT22;37694;51.748;14.326;2023-07-22T14:19:37;25.60;39.00
51613;DHT22;37694;51.748;14.326;2023-07-22T14:22:03;25.60;38.70
51613;DHT22;37694;51.748;14.326;2023-07-22T14:24:29;25.70;37.70
51613;DHT22;37694;51.748;14.326;2023-07-22T14:26:55;25.60;37.20
51613;DHT22;37694;51.748;14.326;2023-07-22T14:29:21;25.50;37.90
51613;DHT22;37694;51.748;14.326;2023-07-22T14:31:47;25.60;37.30
51613;DHT22;37694;51.748;14.326;2023-07-22T14:34:12;25.60;37.30
51613;DHT22;37694;51.748;14.326;2023-07-22T14:36:38;25.60;37.40
51613;DHT22;37694;51.748;14.326;2023-07-22T14:39:04;25.60;36.80
51613;DHT22;37694;51.748;14.326;2023-07-22T14:41:30;25.60;37.20
51613;DHT22;37694;51.748;14.326;2023-07-22T14:43:56;25.60;37.20
51613;DHT22;37694;51.748;14.326;2023-07-22T14:46:22;25.60;37.10
51613;DHT22;37694;51.748;14.326;2023-07-22T14:48:48;25.70;37.10
51613;DHT22;37694;51.748;14.326;2023-07-22T14:51:14;25.60;36.90
51613;DHT22;37694;51.748;14.326;2023-07-22T14:53:39;25.60;37.00
51613;DHT22;37694;51.748;14.326;2023-07-22T14:56:05;25.60;36.70
51613;DHT22;37694;51.748;14.326;2023-07-22T14:58:34;25.60;37.00
51613;DHT22;37694;51.748;14.326;2023-07-22T15:00:59;25.60;37.00
51613;DHT22;37694;51.748;14.326;2023-07-22T15:03:25;25.70;37.00
51613;DHT22;37694;51.748;14.326;2023-07-22T15:05:51;25.70;36.80
51613;DHT22;37694;51.748;14.326;2023-07-22T15:08:17;25.70;37.00
51613;DHT22;37694;51.748;14.326;2023-07-22T15:10:43;25.70;36.90
51613;DHT22;37694;51.748;14.326;2023-07-22T15:13:09;25.70;36.60
51613;DHT22;37694;51.748;14.326;2023-07-22T15:15:34;25.80;36.80
51613;DHT22;37694;51.748;14.326;2023-07-22T15:18:00;25.80;36.80
51613;DHT22;37694;51.748;14.326;2023-07-22T15:20:26;25.80;36.50
51613;DHT22;37694;51.748;14.326;2023-07-22T15:22:52;25.80;36.80
51613;DHT22;37694;51.748;14.326;2023-07-22T15:25:17;25.80;36.70
51613;DHT22;37694;51.748;14.326;2023-07-22T15:27:43;25.80;37.10
51613;DHT22;37694;51.748;14.326;2023-07-22T15:30:10;25.90;37.30
51613;DHT22;37694;51.748;14.326;2023-07-22T15:32:36;25.90;36.90
51613;DHT22;37694;51.748;14.326;2023-07-22T15:35:02;25.80;36.80
51613;DHT22;37694;51.748;14.326;2023-07-22T15:37:27;25.80;36.70